< < Back
Terminal Aerodrome Forecast


Current Version              Previous Versions:   1  2  3  4  5  6  7  8  9  

Terminal Aerodrome Forecast

733
FTUS42 KGSP 231100
TAFAND
TAF
KAND 231125Z 2312/2412 34003KT P6SM SKC
     FM240000 05003KT P6SM SKC
     FM240300 06008KT P6SM SKC=

Latest METAR

598
SAUS70 KWBC 240200
MTRAND
METAR KAND 240156Z AUTO 10006KT 10SM CLR 17/07 A2991 RMK AO2 SLP121
T01670072


USA.gov is the U.S. government's official web portal to all federal, state and local government web resources and services.